sensor_id;sensor_type;location;lat;lon;timestamp;temperature;humidity
44607;DHT22;30315;46.072;14.474;2022-08-21T00:01:49;23.60;74.60
44607;DHT22;30315;46.072;14.474;2022-08-21T00:04:17;23.50;74.60
44607;DHT22;30315;46.072;14.474;2022-08-21T00:06:49;23.50;74.90
44607;DHT22;30315;46.072;14.474;2022-08-21T00:09:17;23.50;74.90
44607;DHT22;30315;46.072;14.474;2022-08-21T00:11:44;23.50;74.90
44607;DHT22;30315;46.072;14.474;2022-08-21T00:14:12;23.50;74.80
44607;DHT22;30315;46.072;14.474;2022-08-21T00:16:40;23.40;74.60
44607;DHT22;30315;46.072;14.474;2022-08-21T00:19:07;23.40;74.80
44607;DHT22;30315;46.072;14.474;2022-08-21T00:21:35;23.30;74.90
44607;DHT22;30315;46.072;14.474;2022-08-21T00:24:03;23.40;75.30
44607;DHT22;30315;46.072;14.474;2022-08-21T00:26:30;23.30;75.20
44607;DHT22;30315;46.072;14.474;2022-08-21T00:28:57;23.30;75.30
44607;DHT22;30315;46.072;14.474;2022-08-21T00:31:24;23.30;75.10
44607;DHT22;30315;46.072;14.474;2022-08-21T00:33:52;23.30;74.80
44607;DHT22;30315;46.072;14.474;2022-08-21T00:36:27;23.20;74.90
44607;DHT22;30315;46.072;14.474;2022-08-21T00:38:54;23.20;75.00
44607;DHT22;30315;46.072;14.474;2022-08-21T00:41:22;23.20;74.80
44607;DHT22;30315;46.072;14.474;2022-08-21T00:44:07;23.10;74.50
44607;DHT22;30315;46.072;14.474;2022-08-21T00:46:35;23.00;74.60
44607;DHT22;30315;46.072;14.474;2022-08-21T00:49:04;22.90;75.10
44607;DHT22;30315;46.072;14.474;2022-08-21T00:51:37;22.90;75.40
44607;DHT22;30315;46.072;14.474;2022-08-21T00:54:06;22.80;75.50
44607;DHT22;30315;46.072;14.474;2022-08-21T00:56:47;22.80;75.70
44607;DHT22;30315;46.072;14.474;2022-08-21T00:59:18;22.70;75.90
44607;DHT22;30315;46.072;14.474;2022-08-21T01:01:46;22.70;76.00
44607;DHT22;30315;46.072;14.474;2022-08-21T01:04:14;22.80;76.20
44607;DHT22;30315;46.072;14.474;2022-08-21T01:06:43;22.70;76.20
44607;DHT22;30315;46.072;14.474;2022-08-21T01:09:11;22.70;76.20
44607;DHT22;30315;46.072;14.474;2022-08-21T01:11:38;22.80;76.20
44607;DHT22;30315;46.072;14.474;2022-08-21T01:14:06;22.80;76.20
44607;DHT22;30315;46.072;14.474;2022-08-21T01:16:33;22.80;76.40
44607;DHT22;30315;46.072;14.474;2022-08-21T01:19:00;22.70;76.20
44607;DHT22;30315;46.072;14.474;2022-08-21T01:21:27;22.70;76.30
44607;DHT22;30315;46.072;14.474;2022-08-21T01:23:56;22.70;76.20
44607;DHT22;30315;46.072;14.474;2022-08-21T01:26:28;22.70;76.20
44607;DHT22;30315;46.072;14.474;2022-08-21T01:31:50;22.70;76.60
44607;DHT22;30315;46.072;14.474;2022-08-21T01:34:17;22.70;76.40
44607;DHT22;30315;46.072;14.474;2022-08-21T01:36:46;22.70;76.40
44607;DHT22;30315;46.072;14.474;2022-08-21T01:39:14;22.70;76.40
44607;DHT22;30315;46.072;14.474;2022-08-21T01:41:42;22.60;76.50
44607;DHT22;30315;46.072;14.474;2022-08-21T01:44:09;22.60;76.60
44607;DHT22;30315;46.072;14.474;2022-08-21T01:46:36;22.60;76.60
44607;DHT22;30315;46.072;14.474;2022-08-21T01:49:04;22.60;76.60
44607;DHT22;30315;46.072;14.474;2022-08-21T01:51:32;22.50;76.70
44607;DHT22;30315;46.072;14.474;2022-08-21T01:53:59;22.40;76.70
44607;DHT22;30315;46.072;14.474;2022-08-21T01:56:26;22.40;77.20
44607;DHT22;30315;46.072;14.474;2022-08-21T01:58:55;22.30;77.20
44607;DHT22;30315;46.072;14.474;2022-08-21T02:01:22;22.30;77.00
44607;DHT22;30315;46.072;14.474;2022-08-21T02:03:49;22.30;77.00
44607;DHT22;30315;46.072;14.474;2022-08-21T02:06:16;22.30;77.20
44607;DHT22;30315;46.072;14.474;2022-08-21T02:08:45;22.30;77.20
44607;DHT22;30315;46.072;14.474;2022-08-21T02:11:13;22.30;77.00
44607;DHT22;30315;46.072;14.474;2022-08-21T02:13:58;22.20;76.50
44607;DHT22;30315;46.072;14.474;2022-08-21T02:16:26;22.10;76.50
44607;DHT22;30315;46.072;14.474;2022-08-21T02:18:53;22.10;76.90
44607;DHT22;30315;46.072;14.474;2022-08-21T02:21:20;22.00;77.60
44607;DHT22;30315;46.072;14.474;2022-08-21T02:23:47;22.00;76.70
44607;DHT22;30315;46.072;14.474;2022-08-21T02:26:14;22.00;76.80
44607;DHT22;30315;46.072;14.474;2022-08-21T02:28:41;22.00;77.30
44607;DHT22;30315;46.072;14.474;2022-08-21T02:31:09;22.00;77.30
44607;DHT22;30315;46.072;14.474;2022-08-21T02:33:36;22.00;77.50
44607;DHT22;30315;46.072;14.474;2022-08-21T02:36:04;22.00;77.60
44607;DHT22;30315;46.072;14.474;2022-08-21T02:38:33;22.00;77.70
44607;DHT22;30315;46.072;14.474;2022-08-21T02:41:01;22.00;77.90
44607;DHT22;30315;46.072;14.474;2022-08-21T02:43:28;22.00;78.20
44607;DHT22;30315;46.072;14.474;2022-08-21T02:45:56;22.00;78.00
44607;DHT22;30315;46.072;14.474;2022-08-21T02:48:29;22.00;78.00
44607;DHT22;30315;46.072;14.474;2022-08-21T02:50:59;22.00;78.10
44607;DHT22;30315;46.072;14.474;2022-08-21T02:53:27;22.00;78.40
44607;DHT22;30315;46.072;14.474;2022-08-21T02:55:57;22.00;78.70
44607;DHT22;30315;46.072;14.474;2022-08-21T02:58:28;22.00;78.90
44607;DHT22;30315;46.072;14.474;2022-08-21T03:00:55;22.00;79.00
44607;DHT22;30315;46.072;14.474;2022-08-21T03:03:22;22.00;79.00
44607;DHT22;30315;46.072;14.474;2022-08-21T03:05:49;22.00;79.00
44607;DHT22;30315;46.072;14.474;2022-08-21T03:08:17;22.00;78.90
44607;DHT22;30315;46.072;14.474;2022-08-21T03:10:47;22.00;79.10
44607;DHT22;30315;46.072;14.474;2022-08-21T03:13:15;22.00;79.00
44607;DHT22;30315;46.072;14.474;2022-08-21T03:15:43;22.10;78.90
44607;DHT22;30315;46.072;14.474;2022-08-21T03:18:11;22.00;78.60
44607;DHT22;30315;46.072;14.474;2022-08-21T03:20:39;22.00;78.80
44607;DHT22;30315;46.072;14.474;2022-08-21T03:23:07;22.00;78.20
44607;DHT22;30315;46.072;14.474;2022-08-21T03:25:40;22.00;77.80
44607;DHT22;30315;46.072;14.474;2022-08-21T03:28:11;21.90;78.20
44607;DHT22;30315;46.072;14.474;2022-08-21T03:30:41;21.80;78.40
44607;DHT22;30315;46.072;14.474;2022-08-21T03:33:09;21.80;78.30
44607;DHT22;30315;46.072;14.474;2022-08-21T03:35:38;21.80;78.70
44607;DHT22;30315;46.072;14.474;2022-08-21T03:38:07;21.80;79.00
44607;DHT22;30315;46.072;14.474;2022-08-21T03:40:34;21.80;79.00
44607;DHT22;30315;46.072;14.474;2022-08-21T03:43:01;21.70;78.90
44607;DHT22;30315;46.072;14.474;2022-08-21T03:45:28;21.70;79.10
44607;DHT22;30315;46.072;14.474;2022-08-21T03:48:00;21.70;79.60
44607;DHT22;30315;46.072;14.474;2022-08-21T03:50:34;21.60;79.30
44607;DHT22;30315;46.072;14.474;2022-08-21T03:53:09;21.60;79.20
44607;DHT22;30315;46.072;14.474;2022-08-21T03:55:48;21.60;79.90
44607;DHT22;30315;46.072;14.474;2022-08-21T03:58:17;21.60;79.90
44607;DHT22;30315;46.072;14.474;2022-08-21T04:00:47;21.60;79.40
44607;DHT22;30315;46.072;14.474;2022-08-21T04:03:14;21.50;79.60
44607;DHT22;30315;46.072;14.474;2022-08-21T04:05:41;21.50;79.80
44607;DHT22;30315;46.072;14.474;2022-08-21T04:08:09;21.60;80.20
44607;DHT22;30315;46.072;14.474;2022-08-21T04:10:37;21.60;80.10
44607;DHT22;30315;46.072;14.474;2022-08-21T04:13:06;21.60;80.10
44607;DHT22;30315;46.072;14.474;2022-08-21T04:15:34;21.60;79.80
44607;DHT22;30315;46.072;14.474;2022-08-21T04:18:01;21.60;79.80
44607;DHT22;30315;46.072;14.474;2022-08-21T04:20:28;21.60;80.10
44607;DHT22;30315;46.072;14.474;2022-08-21T04:22:55;21.60;80.30
44607;DHT22;30315;46.072;14.474;2022-08-21T04:25:23;21.60;79.80
44607;DHT22;30315;46.072;14.474;2022-08-21T04:27:52;21.60;79.90
44607;DHT22;30315;46.072;14.474;2022-08-21T04:30:20;21.60;80.00
44607;DHT22;30315;46.072;14.474;2022-08-21T04:32:56;21.60;79.90
44607;DHT22;30315;46.072;14.474;2022-08-21T04:35:26;21.60;79.80
44607;DHT22;30315;46.072;14.474;2022-08-21T04:37:53;21.60;79.70
44607;DHT22;30315;46.072;14.474;2022-08-21T04:40:21;21.60;79.60
44607;DHT22;30315;46.072;14.474;2022-08-21T04:42:52;21.60;80.30
44607;DHT22;30315;46.072;14.474;2022-08-21T04:45:24;21.50;80.40
44607;DHT22;30315;46.072;14.474;2022-08-21T04:47:53;21.60;80.40
44607;DHT22;30315;46.072;14.474;2022-08-21T04:53:09;21.60;80.30
44607;DHT22;30315;46.072;14.474;2022-08-21T04:55:38;21.70;80.20
44607;DHT22;30315;46.072;14.474;2022-08-21T04:58:06;21.60;80.30
44607;DHT22;30315;46.072;14.474;2022-08-21T05:00:34;21.70;80.40
44607;DHT22;30315;46.072;14.474;2022-08-21T05:03:01;21.60;80.10
44607;DHT22;30315;46.072;14.474;2022-08-21T05:05:30;21.70;80.00
44607;DHT22;30315;46.072;14.474;2022-08-21T05:07:59;21.60;79.80
44607;DHT22;30315;46.072;14.474;2022-08-21T05:10:28;21.60;79.80
44607;DHT22;30315;46.072;14.474;2022-08-21T05:12:55;21.60;80.00
44607;DHT22;30315;46.072;14.474;2022-08-21T05:15:23;21.70;80.10
44607;DHT22;30315;46.072;14.474;2022-08-21T05:17:50;21.70;80.10
44607;DHT22;30315;46.072;14.474;2022-08-21T05:20:27;21.70;80.20
44607;DHT22;30315;46.072;14.474;2022-08-21T05:22:54;21.70;80.30
44607;DHT22;30315;46.072;14.474;2022-08-21T05:25:21;21.70;80.30
44607;DHT22;30315;46.072;14.474;2022-08-21T05:27:49;21.70;80.20
44607;DHT22;30315;46.072;14.474;2022-08-21T05:30:18;21.80;79.80
44607;DHT22;30315;46.072;14.474;2022-08-21T05:32:46;21.70;79.90
44607;DHT22;30315;46.072;14.474;2022-08-21T05:35:14;21.40;79.90
44607;DHT22;30315;46.072;14.474;2022-08-21T05:37:40;21.70;80.40
44607;DHT22;30315;46.072;14.474;2022-08-21T05:40:09;21.70;80.50
44607;DHT22;30315;46.072;14.474;2022-08-21T05:42:52;21.70;80.50
44607;DHT22;30315;46.072;14.474;2022-08-21T05:45:28;21.70;80.60
44607;DHT22;30315;46.072;14.474;2022-08-21T05:48:24;21.70;80.40
44607;DHT22;30315;46.072;14.474;2022-08-21T05:50:52;21.80;80.70
44607;DHT22;30315;46.072;14.474;2022-08-21T05:53:21;21.80;80.90
44607;DHT22;30315;46.072;14.474;2022-08-21T05:55:48;21.80;80.60
44607;DHT22;30315;46.072;14.474;2022-08-21T05:58:18;21.90;80.60
44607;DHT22;30315;46.072;14.474;2022-08-21T06:00:46;21.90;80.90
44607;DHT22;30315;46.072;14.474;2022-08-21T06:03:19;21.90;80.60
44607;DHT22;30315;46.072;14.474;2022-08-21T06:05:47;21.90;80.90
44607;DHT22;30315;46.072;14.474;2022-08-21T06:08:16;22.00;80.50
44607;DHT22;30315;46.072;14.474;2022-08-21T06:10:44;22.00;80.00
44607;DHT22;30315;46.072;14.474;2022-08-21T06:13:14;22.00;80.20
44607;DHT22;30315;46.072;14.474;2022-08-21T06:15:42;22.00;79.80
44607;DHT22;30315;46.072;14.474;2022-08-21T06:18:09;22.00;79.00
44607;DHT22;30315;46.072;14.474;2022-08-21T06:20:37;22.00;78.90
44607;DHT22;30315;46.072;14.474;2022-08-21T06:23:04;21.90;78.80
44607;DHT22;30315;46.072;14.474;2022-08-21T06:25:31;22.00;79.30
44607;DHT22;30315;46.072;14.474;2022-08-21T06:28:07;22.00;79.40
44607;DHT22;30315;46.072;14.474;2022-08-21T06:30:35;22.00;79.50
44607;DHT22;30315;46.072;14.474;2022-08-21T06:33:03;22.10;79.70
44607;DHT22;30315;46.072;14.474;2022-08-21T06:35:30;22.00;78.90
44607;DHT22;30315;46.072;14.474;2022-08-21T06:37:57;22.10;79.00
44607;DHT22;30315;46.072;14.474;2022-08-21T06:40:28;22.00;79.70
44607;DHT22;30315;46.072;14.474;2022-08-21T06:42:58;22.00;79.10
44607;DHT22;30315;46.072;14.474;2022-08-21T06:45:31;22.00;79.30
44607;DHT22;30315;46.072;14.474;2022-08-21T06:47:58;22.10;79.30
44607;DHT22;30315;46.072;14.474;2022-08-21T06:50:26;22.10;79.30
44607;DHT22;30315;46.072;14.474;2022-08-21T06:53:13;22.10;79.60
44607;DHT22;30315;46.072;14.474;2022-08-21T06:55:41;22.10;79.30
44607;DHT22;30315;46.072;14.474;2022-08-21T06:58:09;22.20;78.90
44607;DHT22;30315;46.072;14.474;2022-08-21T07:00:40;22.10;79.20
44607;DHT22;30315;46.072;14.474;2022-08-21T07:03:07;22.20;79.30
44607;DHT22;30315;46.072;14.474;2022-08-21T07:05:34;22.30;79.50
44607;DHT22;30315;46.072;14.474;2022-08-21T07:08:01;22.30;79.40
44607;DHT22;30315;46.072;14.474;2022-08-21T07:10:28;22.40;79.40
44607;DHT22;30315;46.072;14.474;2022-08-21T07:12:55;22.30;79.30
44607;DHT22;30315;46.072;14.474;2022-08-21T07:15:28;22.40;79.40
44607;DHT22;30315;46.072;14.474;2022-08-21T07:17:56;22.50;79.50
44607;DHT22;30315;46.072;14.474;2022-08-21T07:20:24;22.60;79.20
44607;DHT22;30315;46.072;14.474;2022-08-21T07:22:51;22.60;79.00
44607;DHT22;30315;46.072;14.474;2022-08-21T07:25:18;22.60;78.80
44607;DHT22;30315;46.072;14.474;2022-08-21T07:27:45;22.70;78.40
44607;DHT22;30315;46.072;14.474;2022-08-21T07:30:12;22.70;78.50
44607;DHT22;30315;46.072;14.474;2022-08-21T07:32:39;22.70;78.30
44607;DHT22;30315;46.072;14.474;2022-08-21T07:35:06;22.80;78.20
44607;DHT22;30315;46.072;14.474;2022-08-21T07:37:33;22.80;78.20
44607;DHT22;30315;46.072;14.474;2022-08-21T07:40:00;22.80;78.30
44607;DHT22;30315;46.072;14.474;2022-08-21T07:42:28;22.90;78.30
44607;DHT22;30315;46.072;14.474;2022-08-21T07:44:55;22.90;77.80
44607;DHT22;30315;46.072;14.474;2022-08-21T07:47:22;23.00;77.70
44607;DHT22;30315;46.072;14.474;2022-08-21T07:50:12;23.00;77.70
44607;DHT22;30315;46.072;14.474;2022-08-21T07:52:40;23.00;77.20
44607;DHT22;30315;46.072;14.474;2022-08-21T07:55:09;23.10;77.20
44607;DHT22;30315;46.072;14.474;2022-08-21T07:57:37;23.20;76.90
44607;DHT22;30315;46.072;14.474;2022-08-21T08:00:07;23.20;76.30
44607;DHT22;30315;46.072;14.474;2022-08-21T08:02:50;23.20;75.60
44607;DHT22;30315;46.072;14.474;2022-08-21T08:05:19;23.30;75.60
44607;DHT22;30315;46.072;14.474;2022-08-21T08:07:47;23.40;75.50
44607;DHT22;30315;46.072;14.474;2022-08-21T08:10:16;23.50;74.70
44607;DHT22;30315;46.072;14.474;2022-08-21T08:12:44;23.50;74.30
44607;DHT22;30315;46.072;14.474;2022-08-21T08:15:16;23.60;75.10
44607;DHT22;30315;46.072;14.474;2022-08-21T08:17:44;23.70;73.60
44607;DHT22;30315;46.072;14.474;2022-08-21T08:20:12;23.80;72.40
44607;DHT22;30315;46.072;14.474;2022-08-21T08:22:40;23.80;72.00
44607;DHT22;30315;46.072;14.474;2022-08-21T08:25:09;23.80;71.80
44607;DHT22;30315;46.072;14.474;2022-08-21T08:27:37;23.80;71.70
44607;DHT22;30315;46.072;14.474;2022-08-21T08:30:05;23.90;71.50
44607;DHT22;30315;46.072;14.474;2022-08-21T08:32:33;24.00;71.90
44607;DHT22;30315;46.072;14.474;2022-08-21T08:35:21;24.00;71.90
44607;DHT22;30315;46.072;14.474;2022-08-21T08:37:56;24.00;71.70
44607;DHT22;30315;46.072;14.474;2022-08-21T08:40:52;24.10;72.10
44607;DHT22;30315;46.072;14.474;2022-08-21T08:43:25;24.20;72.20
44607;DHT22;30315;46.072;14.474;2022-08-21T08:45:56;24.20;72.00
44607;DHT22;30315;46.072;14.474;2022-08-21T08:48:40;24.20;71.90
44607;DHT22;30315;46.072;14.474;2022-08-21T08:51:15;24.30;71.70
44607;DHT22;30315;46.072;14.474;2022-08-21T08:53:52;24.30;71.80
44607;DHT22;30315;46.072;14.474;2022-08-21T08:56:28;24.30;71.20
44607;DHT22;30315;46.072;14.474;2022-08-21T08:59:02;24.30;71.20
44607;DHT22;30315;46.072;14.474;2022-08-21T09:01:35;24.40;70.90
44607;DHT22;30315;46.072;14.474;2022-08-21T09:04:05;24.00;69.90
44607;DHT22;30315;46.072;14.474;2022-08-21T09:06:44;24.40;69.70
44607;DHT22;30315;46.072;14.474;2022-08-21T09:18:06;24.30;68.50
44607;DHT22;30315;46.072;14.474;2022-08-21T09:26:22;24.40;68.80
44607;DHT22;30315;46.072;14.474;2022-08-21T09:28:56;24.40;68.20
44607;DHT22;30315;46.072;14.474;2022-08-21T09:33:58;24.40;66.70
44607;DHT22;30315;46.072;14.474;2022-08-21T09:36:31;24.50;66.30
44607;DHT22;30315;46.072;14.474;2022-08-21T09:39:00;24.50;65.80
44607;DHT22;30315;46.072;14.474;2022-08-21T09:41:32;24.60;66.00
44607;DHT22;30315;46.072;14.474;2022-08-21T09:44:01;24.60;66.00
44607;DHT22;30315;46.072;14.474;2022-08-21T09:46:28;24.70;66.00
44607;DHT22;30315;46.072;14.474;2022-08-21T09:48:58;24.70;65.80
44607;DHT22;30315;46.072;14.474;2022-08-21T09:51:35;24.90;65.30
44607;DHT22;30315;46.072;14.474;2022-08-21T09:54:16;25.00;64.50
44607;DHT22;30315;46.072;14.474;2022-08-21T09:57:19;25.10;64.20
44607;DHT22;30315;46.072;14.474;2022-08-21T10:00:26;25.30;63.90
44607;DHT22;30315;46.072;14.474;2022-08-21T10:02:53;25.40;62.90
44607;DHT22;30315;46.072;14.474;2022-08-21T10:05:27;25.50;62.30
44607;DHT22;30315;46.072;14.474;2022-08-21T10:07:54;25.60;62.00
44607;DHT22;30315;46.072;14.474;2022-08-21T10:10:26;25.70;61.70
44607;DHT22;30315;46.072;14.474;2022-08-21T10:18:40;26.10;59.10
44607;DHT22;30315;46.072;14.474;2022-08-21T10:21:30;26.20;57.70
44607;DHT22;30315;46.072;14.474;2022-08-21T10:24:18;26.30;55.50
44607;DHT22;30315;46.072;14.474;2022-08-21T10:29:57;26.50;55.40
44607;DHT22;30315;46.072;14.474;2022-08-21T10:32:55;26.60;54.80
44607;DHT22;30315;46.072;14.474;2022-08-21T10:55:55;27.40;53.20
44607;DHT22;30315;46.072;14.474;2022-08-21T10:58:29;27.40;52.90
44607;DHT22;30315;46.072;14.474;2022-08-21T11:01:23;27.50;53.00
44607;DHT22;30315;46.072;14.474;2022-08-21T11:03:55;27.60;53.00
44607;DHT22;30315;46.072;14.474;2022-08-21T11:06:31;27.70;52.70
44607;DHT22;30315;46.072;14.474;2022-08-21T11:09:20;27.80;52.70
44607;DHT22;30315;46.072;14.474;2022-08-21T11:14:48;28.00;51.70
44607;DHT22;30315;46.072;14.474;2022-08-21T11:17:49;28.20;51.80
44607;DHT22;30315;46.072;14.474;2022-08-21T11:20:30;28.40;50.40
44607;DHT22;30315;46.072;14.474;2022-08-21T11:23:18;28.50;50.50
44607;DHT22;30315;46.072;14.474;2022-08-21T11:25:55;28.50;50.10
44607;DHT22;30315;46.072;14.474;2022-08-21T11:28:30;28.50;49.20
44607;DHT22;30315;46.072;14.474;2022-08-21T11:31:01;28.50;46.70
44607;DHT22;30315;46.072;14.474;2022-08-21T11:39:45;28.50;47.80
44607;DHT22;30315;46.072;14.474;2022-08-21T11:42:02;28.50;47.20
44607;DHT22;30315;46.072;14.474;2022-08-21T11:44:41;28.60;47.30
44607;DHT22;30315;46.072;14.474;2022-08-21T11:47:24;28.70;46.80
44607;DHT22;30315;46.072;14.474;2022-08-21T11:50:16;28.80;46.10
44607;DHT22;30315;46.072;14.474;2022-08-21T11:53:24;28.90;45.20
44607;DHT22;30315;46.072;14.474;2022-08-21T11:56:00;29.00;44.60
44607;DHT22;30315;46.072;14.474;2022-08-21T11:58:48;29.00;45.00
44607;DHT22;30315;46.072;14.474;2022-08-21T12:01:20;29.00;44.40
44607;DHT22;30315;46.072;14.474;2022-08-21T12:06:41;29.10;45.30
44607;DHT22;30315;46.072;14.474;2022-08-21T12:14:47;29.20;45.40
44607;DHT22;30315;46.072;14.474;2022-08-21T12:17:27;29.20;43.20
44607;DHT22;30315;46.072;14.474;2022-08-21T12:22:49;29.30;41.50
44607;DHT22;30315;46.072;14.474;2022-08-21T12:25:20;29.30;42.80
44607;DHT22;30315;46.072;14.474;2022-08-21T12:28:01;29.40;42.80
44607;DHT22;30315;46.072;14.474;2022-08-21T12:32:59;29.50;43.10
44607;DHT22;30315;46.072;14.474;2022-08-21T12:35:33;29.50;43.00
44607;DHT22;30315;46.072;14.474;2022-08-21T12:38:09;29.50;42.90
44607;DHT22;30315;46.072;14.474;2022-08-21T12:43:20;29.50;43.00
44607;DHT22;30315;46.072;14.474;2022-08-21T12:45:49;29.40;43.10
44607;DHT22;30315;46.072;14.474;2022-08-21T12:48:19;29.40;42.90
44607;DHT22;30315;46.072;14.474;2022-08-21T12:50:56;29.30;42.70
44607;DHT22;30315;46.072;14.474;2022-08-21T12:53:34;29.20;42.90
44607;DHT22;30315;46.072;14.474;2022-08-21T12:56:04;29.10;42.90
44607;DHT22;30315;46.072;14.474;2022-08-21T12:58:36;29.00;42.50
44607;DHT22;30315;46.072;14.474;2022-08-21T13:01:13;28.80;42.30
44607;DHT22;30315;46.072;14.474;2022-08-21T13:03:44;28.80;42.70
44607;DHT22;30315;46.072;14.474;2022-08-21T13:06:16;28.60;42.20
44607;DHT22;30315;46.072;14.474;2022-08-21T13:08:45;28.50;41.70
44607;DHT22;30315;46.072;14.474;2022-08-21T13:11:14;28.50;42.10
44607;DHT22;30315;46.072;14.474;2022-08-21T13:14:00;28.40;41.70
44607;DHT22;30315;46.072;14.474;2022-08-21T13:16:31;28.30;41.80
44607;DHT22;30315;46.072;14.474;2022-08-21T13:19:06;28.20;42.00
44607;DHT22;30315;46.072;14.474;2022-08-21T13:21:39;28.20;42.90
44607;DHT22;30315;46.072;14.474;2022-08-21T13:24:27;28.20;43.30
44607;DHT22;30315;46.072;14.474;2022-08-21T13:27:21;28.10;43.80
44607;DHT22;30315;46.072;14.474;2022-08-21T13:30:04;28.10;43.80
44607;DHT22;30315;46.072;14.474;2022-08-21T13:32:34;28.10;43.90
44607;DHT22;30315;46.072;14.474;2022-08-21T13:37:46;28.00;44.10
44607;DHT22;30315;46.072;14.474;2022-08-21T13:40:15;27.90;44.00
44607;DHT22;30315;46.072;14.474;2022-08-21T13:42:46;27.90;44.30
44607;DHT22;30315;46.072;14.474;2022-08-21T13:45:25;27.90;44.20
44607;DHT22;30315;46.072;14.474;2022-08-21T13:47:53;27.90;44.70
44607;DHT22;30315;46.072;14.474;2022-08-21T13:50:23;27.90;45.60
44607;DHT22;30315;46.072;14.474;2022-08-21T13:52:59;27.90;46.00
44607;DHT22;30315;46.072;14.474;2022-08-21T13:55:39;27.80;45.00
44607;DHT22;30315;46.072;14.474;2022-08-21T13:58:07;27.80;44.20
44607;DHT22;30315;46.072;14.474;2022-08-21T14:00:46;27.80;44.00
44607;DHT22;30315;46.072;14.474;2022-08-21T14:03:29;27.80;43.80
44607;DHT22;30315;46.072;14.474;2022-08-21T14:05:57;27.70;44.10
44607;DHT22;30315;46.072;14.474;2022-08-21T14:08:36;27.70;44.00
44607;DHT22;30315;46.072;14.474;2022-08-21T14:11:05;27.70;45.00
44607;DHT22;30315;46.072;14.474;2022-08-21T14:13:45;27.70;45.30
44607;DHT22;30315;46.072;14.474;2022-08-21T14:16:29;27.70;46.20
44607;DHT22;30315;46.072;14.474;2022-08-21T14:19:19;27.70;46.90
44607;DHT22;30315;46.072;14.474;2022-08-21T14:21:47;27.70;48.10
44607;DHT22;30315;46.072;14.474;2022-08-21T14:24:26;27.70;47.90
44607;DHT22;30315;46.072;14.474;2022-08-21T14:27:15;27.60;46.80
44607;DHT22;30315;46.072;14.474;2022-08-21T14:29:43;27.60;46.60
44607;DHT22;30315;46.072;14.474;2022-08-21T14:32:21;27.60;46.80
44607;DHT22;30315;46.072;14.474;2022-08-21T14:34:52;27.60;46.60
44607;DHT22;30315;46.072;14.474;2022-08-21T14:37:21;27.60;46.10
44607;DHT22;30315;46.072;14.474;2022-08-21T14:39:48;27.60;45.80
44607;DHT22;30315;46.072;14.474;2022-08-21T14:42:15;27.60;45.90
44607;DHT22;30315;46.072;14.474;2022-08-21T14:44:43;27.60;45.90
44607;DHT22;30315;46.072;14.474;2022-08-21T14:47:10;27.60;46.00
44607;DHT22;30315;46.072;14.474;2022-08-21T14:49:37;27.60;46.20
44607;DHT22;30315;46.072;14.474;2022-08-21T14:52:04;27.50;46.60
44607;DHT22;30315;46.072;14.474;2022-08-21T14:54:32;27.50;46.90
44607;DHT22;30315;46.072;14.474;2022-08-21T14:57:06;27.60;47.20
44607;DHT22;30315;46.072;14.474;2022-08-21T14:59:35;27.60;47.70
44607;DHT22;30315;46.072;14.474;2022-08-21T15:02:03;27.60;47.20
44607;DHT22;30315;46.072;14.474;2022-08-21T15:04:32;27.60;47.30
44607;DHT22;30315;46.072;14.474;2022-08-21T15:06:59;27.60;47.10
44607;DHT22;30315;46.072;14.474;2022-08-21T15:09:27;27.60;47.30
44607;DHT22;30315;46.072;14.474;2022-08-21T15:11:56;27.60;47.50
44607;DHT22;30315;46.072;14.474;2022-08-21T15:14:28;27.60;47.90
44607;DHT22;30315;46.072;14.474;2022-08-21T15:16:55;27.60;47.50
44607;DHT22;30315;46.072;14.474;2022-08-21T15:19:22;27.50;47.40
44607;DHT22;30315;46.072;14.474;2022-08-21T15:21:49;27.60;47.70
44607;DHT22;30315;46.072;14.474;2022-08-21T15:24:16;27.60;46.60
44607;DHT22;30315;46.072;14.474;2022-08-21T15:26:44;27.60;46.80
44607;DHT22;30315;46.072;14.474;2022-08-21T15:29:11;27.60;46.60
44607;DHT22;30315;46.072;14.474;2022-08-21T15:31:53;27.50;46.70
44607;DHT22;30315;46.072;14.474;2022-08-21T15:34:21;27.60;46.80
44607;DHT22;30315;46.072;14.474;2022-08-21T15:36:57;27.60;46.80
44607;DHT22;30315;46.072;14.474;2022-08-21T15:39:25;27.60;46.30
44607;DHT22;30315;46.072;14.474;2022-08-21T15:41:58;27.60;46.30
44607;DHT22;30315;46.072;14.474;2022-08-21T15:44:26;27.60;46.30
44607;DHT22;30315;46.072;14.474;2022-08-21T15:46:54;27.70;46.30
44607;DHT22;30315;46.072;14.474;2022-08-21T15:49:22;27.70;46.00
44607;DHT22;30315;46.072;14.474;2022-08-21T15:51:49;27.60;46.50
44607;DHT22;30315;46.072;14.474;2022-08-21T15:54:16;27.60;46.10
44607;DHT22;30315;46.072;14.474;2022-08-21T15:56:46;27.60;45.90
44607;DHT22;30315;46.072;14.474;2022-08-21T15:59:20;27.60;45.70
44607;DHT22;30315;46.072;14.474;2022-08-21T16:01:51;27.50;45.50
44607;DHT22;30315;46.072;14.474;2022-08-21T16:04:25;27.50;45.80
44607;DHT22;30315;46.072;14.474;2022-08-21T16:06:53;27.40;45.10
44607;DHT22;30315;46.072;14.474;2022-08-21T16:09:29;27.40;46.00
44607;DHT22;30315;46.072;14.474;2022-08-21T16:11:57;27.40;45.40
44607;DHT22;30315;46.072;14.474;2022-08-21T16:14:25;27.40;44.70
44607;DHT22;30315;46.072;14.474;2022-08-21T16:16:53;27.40;45.10
44607;DHT22;30315;46.072;14.474;2022-08-21T16:19:20;27.40;45.60
44607;DHT22;30315;46.072;14.474;2022-08-21T16:21:47;27.40;45.90
44607;DHT22;30315;46.072;14.474;2022-08-21T16:24:14;27.40;45.90
44607;DHT22;30315;46.072;14.474;2022-08-21T16:26:41;27.50;45.70
44607;DHT22;30315;46.072;14.474;2022-08-21T16:29:09;27.50;45.20
44607;DHT22;30315;46.072;14.474;2022-08-21T16:31:36;27.50;45.30
44607;DHT22;30315;46.072;14.474;2022-08-21T16:34:03;27.50;45.60
44607;DHT22;30315;46.072;14.474;2022-08-21T16:36:30;27.60;45.90
44607;DHT22;30315;46.072;14.474;2022-08-21T16:38:58;27.60;46.10
44607;DHT22;30315;46.072;14.474;2022-08-21T16:41:30;27.60;46.00
44607;DHT22;30315;46.072;14.474;2022-08-21T16:43:57;27.60;45.60
44607;DHT22;30315;46.072;14.474;2022-08-21T16:46:32;27.70;46.10
44607;DHT22;30315;46.072;14.474;2022-08-21T16:48:59;27.60;46.30
44607;DHT22;30315;46.072;14.474;2022-08-21T16:51:27;27.70;46.20
44607;DHT22;30315;46.072;14.474;2022-08-21T16:53:57;27.70;46.40
44607;DHT22;30315;46.072;14.474;2022-08-21T16:56:25;27.70;46.60
44607;DHT22;30315;46.072;14.474;2022-08-21T16:58:54;27.70;46.50
44607;DHT22;30315;46.072;14.474;2022-08-21T17:01:23;27.70;46.90